Portada
METAR-TAF:

METAR-TAF

Aeroports :

Wellington, Nova Zelanda

latitud: 41-20S, longitud: 174-48E, altitud: 12 m

Observació

L'informe es va fer fa 21 minuts, a les 11:00 UTC
Vent 15 kt del Nord/Nord-Est
Temperatura 14°C
Humitat 72%
Pressió 1023 hPa
Visibilitat 10 km o més

METAR: NZWN 231100Z AUTO 02015KT 9999 NCD 14/09 Q1023 NOSIG

Hora: 00:21 (11:21 UTC)

Pronòstic

L'informe es va fer fa 6 hores i 16 minuts, a les 05:05 UTC
Pronòstic vàlid del 23 a les 06 UTC al 24 a les 06 UTC
Vent 20 kt del Nord amb ràfegues de 30 kt
Visibilitat 10 km o més
Escasses núvols a una alçada de 2000 ft
Evolucionant progressivament
l' 23 a les 06 UTC al 23 a les 08 UTC
Vent 18 kt del Nord
Evolucionant progressivament
l' 23 a les 20 UTC al 23 a les 22 UTC
Vent 20 kt del Nord amb ràfegues de 30 kt

TAF: NZWN 230505Z 2306/2406 36020G30KT 9999 FEW020 BECMG 2306/2308 36018KT BECMG 2320/2322 36020G30KT

Observacions i pronòstics meteorològics de més de 4000 aeroports (METAR i TAF).

Les estacions disponibles són els punts grocs i vermells al mapa.

Posi el ratolí al punt desitjat per veure el nom de l'estació.

Feu clic per veure les observacions i els pronòstics meteorològics.

Per canviar el mapa: feu clic els botons verds amb una creu de color negre per apropar; al botó verd amb un guió per allunyar la imatge; o en les fletxes verdes per a mapes adjacents.


METAR-TAF: